createdAt,value
2023-05-25T00:00:18.881Z,9.50
2023-05-25T00:02:46.760Z,9.50
2023-05-25T00:05:15.191Z,9.50
2023-05-25T00:07:42.020Z,9.50
2023-05-25T00:10:09.204Z,9.40
2023-05-25T00:12:37.678Z,9.30
2023-05-25T00:15:08.075Z,9.20
2023-05-25T00:17:37.086Z,9.20
2023-05-25T00:20:07.851Z,9.30
2023-05-25T00:22:36.401Z,9.30
2023-05-25T00:25:04.717Z,9.20
2023-05-25T00:27:31.525Z,9.10
2023-05-25T00:29:58.947Z,9.00
2023-05-25T00:32:25.938Z,8.90
2023-05-25T00:34:55.064Z,8.80
2023-05-25T00:37:22.031Z,8.60
2023-05-25T00:39:49.067Z,8.50
2023-05-25T00:42:16.306Z,8.50
2023-05-25T00:44:43.333Z,8.50
2023-05-25T00:47:11.750Z,8.40
2023-05-25T00:49:38.588Z,8.40
2023-05-25T00:52:06.079Z,8.30
2023-05-25T00:54:33.462Z,8.20
2023-05-25T00:57:04.728Z,8.20
2023-05-25T00:59:40.887Z,8.20
2023-05-25T01:02:16.168Z,8.20
2023-05-25T01:04:53.328Z,8.20
2023-05-25T01:07:25.202Z,8.20
2023-05-25T01:09:59.003Z,8.20
2023-05-25T01:12:30.628Z,8.20
2023-05-25T01:14:58.067Z,8.20
2023-05-25T01:17:26.461Z,8.20
2023-05-25T01:20:09.034Z,8.20
2023-05-25T01:22:47.980Z,8.20
2023-05-25T01:25:29.416Z,8.20
2023-05-25T01:28:05.745Z,8.20
2023-05-25T01:30:34.858Z,8.20
2023-05-25T01:33:02.132Z,8.10
2023-05-25T01:35:29.648Z,8.00
2023-05-25T01:37:59.028Z,8.00
2023-05-25T01:40:25.820Z,8.00
2023-05-25T01:42:52.612Z,7.90
2023-05-25T01:45:19.899Z,7.90
2023-05-25T01:48:03.373Z,7.90
2023-05-25T01:50:58.154Z,7.80
2023-05-25T01:53:53.838Z,7.80
2023-05-25T01:56:23.218Z,7.80
2023-05-25T01:58:51.861Z,7.80
2023-05-25T02:01:19.925Z,7.70
2023-05-25T02:03:49.083Z,7.80
2023-05-25T02:06:16.943Z,7.80
2023-05-25T02:08:46.600Z,7.70
2023-05-25T02:11:17.112Z,7.70
2023-05-25T02:13:43.928Z,7.60
2023-05-25T02:16:10.791Z,7.50
2023-05-25T02:18:37.712Z,7.50
2023-05-25T02:21:04.510Z,7.50
2023-05-25T02:23:31.336Z,7.50
2023-05-25T02:25:58.093Z,7.40
2023-05-25T02:28:24.961Z,7.40
2023-05-25T02:30:51.733Z,7.30
2023-05-25T02:33:18.855Z,7.30
2023-05-25T02:35:45.892Z,7.30
2023-05-25T02:38:12.971Z,7.20
2023-05-25T02:40:39.778Z,7.20
2023-05-25T02:43:06.560Z,7.20
2023-05-25T02:45:33.330Z,7.10
2023-05-25T02:48:00.354Z,7.10
2023-05-25T02:50:27.162Z,7.10
2023-05-25T02:52:54.808Z,7.10
2023-05-25T02:55:21.577Z,7.00
2023-05-25T02:57:48.627Z,7.00
2023-05-25T03:00:15.909Z,7.00
2023-05-25T03:02:42.726Z,7.00
2023-05-25T03:05:09.692Z,6.90
2023-05-25T03:07:36.610Z,6.90
2023-05-25T03:10:03.772Z,6.90
2023-05-25T03:12:30.566Z,7.00
2023-05-25T03:14:57.644Z,6.90
2023-05-25T03:17:24.418Z,6.90
2023-05-25T03:19:52.045Z,6.90
2023-05-25T03:22:18.871Z,6.80
2023-05-25T03:24:46.520Z,6.80
2023-05-25T03:27:13.259Z,6.80
2023-05-25T03:29:40.011Z,6.80
2023-05-25T03:32:07.712Z,6.80
2023-05-25T03:34:35.226Z,6.80
2023-05-25T03:37:02.287Z,6.70
2023-05-25T03:39:29.016Z,6.70
2023-05-25T03:41:55.996Z,6.80
2023-05-25T03:44:22.854Z,6.80
2023-05-25T03:46:49.917Z,6.80
2023-05-25T03:49:16.686Z,6.80
2023-05-25T03:51:44.256Z,6.90
2023-05-25T03:54:11.211Z,7.00
2023-05-25T03:56:37.982Z,7.00
2023-05-25T03:59:04.811Z,7.00
2023-05-25T04:01:31.615Z,7.10
2023-05-25T04:03:58.535Z,7.10
2023-05-25T04:06:25.422Z,7.20
2023-05-25T04:08:52.642Z,7.20
2023-05-25T04:11:20.861Z,7.30
2023-05-25T04:13:47.655Z,7.30
2023-05-25T04:16:14.571Z,7.40
2023-05-25T04:18:41.548Z,7.40
2023-05-25T04:21:08.361Z,7.40
2023-05-25T04:23:35.133Z,7.40
2023-05-25T04:26:02.023Z,7.40
2023-05-25T04:28:30.157Z,7.40
2023-05-25T04:30:57.215Z,7.50
2023-05-25T04:33:24.700Z,7.60
2023-05-25T04:35:51.620Z,7.60
2023-05-25T04:38:18.448Z,7.60
2023-05-25T04:40:46.300Z,7.70
2023-05-25T04:43:13.613Z,7.60
2023-05-25T04:45:40.436Z,7.70
2023-05-25T04:48:07.461Z,7.80
2023-05-25T04:50:34.333Z,7.80
2023-05-25T04:53:01.101Z,8.00
2023-05-25T04:55:28.003Z,8.10
2023-05-25T04:57:54.893Z,8.10
2023-05-25T05:00:21.925Z,8.20
2023-05-25T05:02:50.898Z,8.30
2023-05-25T05:05:18.064Z,8.30
2023-05-25T05:07:44.865Z,8.30
2023-05-25T05:10:11.856Z,8.40
2023-05-25T05:12:38.735Z,8.40
2023-05-25T05:15:06.112Z,8.50
2023-05-25T05:17:34.222Z,8.50
2023-05-25T05:20:01.101Z,8.60
2023-05-25T05:22:27.972Z,8.70
2023-05-25T05:24:55.067Z,8.80
2023-05-25T05:27:22.426Z,8.90
2023-05-25T05:29:49.205Z,8.90
2023-05-25T05:32:16.025Z,9.00
2023-05-25T05:34:42.866Z,9.10
2023-05-25T05:37:09.756Z,9.20
2023-05-25T05:39:37.089Z,9.30
2023-05-25T05:42:04.228Z,9.30
2023-05-25T05:44:31.042Z,9.40
2023-05-25T05:47:01.868Z,9.50
2023-05-25T05:49:34.429Z,9.50
2023-05-25T05:52:03.365Z,9.60
2023-05-25T05:54:30.111Z,9.70
2023-05-25T05:56:56.920Z,9.80
2023-05-25T05:59:24.087Z,10.00
2023-05-25T06:01:50.900Z,10.20
2023-05-25T06:04:18.740Z,10.30
2023-05-25T06:06:45.727Z,10.40
2023-05-25T06:09:12.607Z,10.60
2023-05-25T06:11:40.054Z,10.70
2023-05-25T06:14:07.031Z,10.70
2023-05-25T06:16:33.952Z,10.80
2023-05-25T06:19:01.482Z,10.80
2023-05-25T06:21:28.346Z,10.80
2023-05-25T06:23:57.553Z,10.90
2023-05-25T06:26:24.709Z,11.00
2023-05-25T06:28:51.625Z,11.10
2023-05-25T06:31:18.779Z,11.30
2023-05-25T06:33:46.842Z,11.30
2023-05-25T06:36:15.889Z,11.30
2023-05-25T06:38:43.079Z,11.30
2023-05-25T06:41:12.696Z,11.30
2023-05-25T06:43:39.512Z,11.50
2023-05-25T06:46:06.369Z,11.60
2023-05-25T06:48:33.184Z,11.60
2023-05-25T06:51:00.011Z,11.70
2023-05-25T06:53:26.799Z,11.70
2023-05-25T06:55:53.633Z,11.80
2023-05-25T06:58:20.470Z,11.90
2023-05-25T07:00:47.539Z,11.90
2023-05-25T07:03:14.338Z,11.90
2023-05-25T07:05:41.437Z,11.90
2023-05-25T07:08:08.339Z,12.00
2023-05-25T07:10:35.221Z,12.00
2023-05-25T07:13:01.993Z,12.00
2023-05-25T07:15:31.772Z,12.10
2023-05-25T07:17:58.686Z,12.20
2023-05-25T07:20:25.661Z,12.30
2023-05-25T07:22:53.273Z,12.40
2023-05-25T07:25:20.210Z,12.40
2023-05-25T07:27:50.501Z,12.50
2023-05-25T07:30:18.258Z,12.60
2023-05-25T07:32:45.658Z,12.60
2023-05-25T07:35:13.232Z,12.70
2023-05-25T07:37:39.999Z,12.80
2023-05-25T07:40:07.562Z,13.00
2023-05-25T07:42:35.253Z,13.10
2023-05-25T07:45:02.659Z,13.20
2023-05-25T07:47:29.618Z,13.20
2023-05-25T07:49:56.758Z,13.30
2023-05-25T07:52:23.838Z,13.40
2023-05-25T07:54:51.426Z,13.50
2023-05-25T07:57:18.842Z,13.60
2023-05-25T07:59:45.927Z,13.60
2023-05-25T08:02:12.738Z,13.70
2023-05-25T08:04:39.702Z,13.70
2023-05-25T08:07:07.689Z,13.70
2023-05-25T08:09:35.570Z,13.80
2023-05-25T08:12:24.020Z,13.90
2023-05-25T08:14:50.752Z,14.00
2023-05-25T08:17:17.773Z,14.10
2023-05-25T08:19:45.215Z,14.20
2023-05-25T08:22:12.803Z,14.30
2023-05-25T08:24:39.661Z,14.40
2023-05-25T08:27:06.641Z,14.50
2023-05-25T08:29:33.385Z,14.50
2023-05-25T08:32:00.283Z,14.60
2023-05-25T08:34:27.075Z,14.70
2023-05-25T08:36:53.885Z,14.70
2023-05-25T08:39:20.689Z,14.80
2023-05-25T08:41:48.273Z,14.90
2023-05-25T08:44:15.351Z,14.80
2023-05-25T08:46:42.581Z,15.00
2023-05-25T08:49:14.975Z,15.00
2023-05-25T08:51:53.101Z,15.10
2023-05-25T08:54:34.054Z,15.20
2023-05-25T08:57:26.202Z,15.30
2023-05-25T09:00:10.753Z,15.40
2023-05-25T09:02:54.561Z,15.40
2023-05-25T09:05:22.524Z,15.50
2023-05-25T09:07:51.507Z,15.60
2023-05-25T09:10:18.921Z,15.60
2023-05-25T09:12:46.596Z,15.70
2023-05-25T09:15:13.498Z,15.90
2023-05-25T09:17:41.584Z,15.90
2023-05-25T09:20:13.528Z,16.00
2023-05-25T09:22:42.034Z,16.10
2023-05-25T09:25:11.522Z,16.10
2023-05-25T09:27:38.876Z,16.20
2023-05-25T09:30:07.163Z,16.10
2023-05-25T09:32:34.276Z,16.20
2023-05-25T09:35:11.572Z,16.20
2023-05-25T09:37:40.996Z,16.30
2023-05-25T09:40:10.723Z,16.30
2023-05-25T09:42:40.406Z,16.40
2023-05-25T09:45:07.557Z,16.40
2023-05-25T09:47:37.257Z,16.60
2023-05-25T09:50:04.605Z,16.70
2023-05-25T09:52:31.637Z,16.70
2023-05-25T09:54:58.422Z,16.80
2023-05-25T09:57:28.292Z,16.80
2023-05-25T09:59:55.065Z,16.80
2023-05-25T10:02:22.276Z,16.90
2023-05-25T10:04:49.495Z,17.10
2023-05-25T10:07:17.225Z,17.30
2023-05-25T10:09:47.246Z,17.30
2023-05-25T10:12:18.519Z,17.30
2023-05-25T10:14:46.574Z,17.40
2023-05-25T10:17:16.018Z,17.50
2023-05-25T10:19:55.636Z,17.60
2023-05-25T10:22:50.082Z,17.80
2023-05-25T10:25:21.791Z,17.80
2023-05-25T10:27:59.623Z,17.80
2023-05-25T10:30:29.687Z,17.80
2023-05-25T10:32:57.005Z,17.80
2023-05-25T10:35:25.191Z,17.80
2023-05-25T10:37:53.718Z,17.80
2023-05-25T10:40:22.694Z,17.90
2023-05-25T10:42:52.890Z,18.10
2023-05-25T10:45:20.471Z,18.40
2023-05-25T10:47:47.564Z,18.50
2023-05-25T10:50:26.891Z,18.60
2023-05-25T10:53:07.834Z,18.70
2023-05-25T10:56:03.473Z,18.70
2023-05-25T10:58:31.648Z,19.00
2023-05-25T11:01:08.671Z,19.10
2023-05-25T11:03:44.623Z,19.20
2023-05-25T11:06:15.562Z,19.40
2023-05-25T11:08:56.051Z,19.60
2023-05-25T11:11:43.278Z,19.90
2023-05-25T11:14:30.171Z,20.20
2023-05-25T11:17:18.946Z,20.50
2023-05-25T11:19:50.727Z,20.70
2023-05-25T11:22:21.527Z,20.80
2023-05-25T11:24:55.798Z,21.20
2023-05-25T11:27:32.151Z,21.70
2023-05-25T11:30:00.078Z,22.70
2023-05-25T11:32:28.108Z,23.10
2023-05-25T11:34:57.245Z,24.20
2023-05-25T11:37:28.638Z,24.90
2023-05-25T11:39:55.597Z,25.10
2023-05-25T11:42:24.450Z,25.60
2023-05-25T11:44:51.641Z,25.50
2023-05-25T11:47:24.621Z,25.70
2023-05-25T11:49:51.435Z,26.50
2023-05-25T11:52:20.257Z,26.40
2023-05-25T11:54:47.337Z,26.20
2023-05-25T11:57:20.421Z,25.90
2023-05-25T11:59:54.656Z,25.50
2023-05-25T12:02:22.571Z,24.90
2023-05-25T12:05:02.230Z,25.20
2023-05-25T12:07:31.514Z,25.70
2023-05-25T12:10:09.219Z,26.70
2023-05-25T12:12:46.894Z,27.80
2023-05-25T12:15:21.868Z,28.50
2023-05-25T12:17:49.719Z,29.20
2023-05-25T12:20:17.872Z,29.30
2023-05-25T12:22:46.537Z,29.70
2023-05-25T12:25:18.076Z,29.30
2023-05-25T12:27:44.856Z,30.00
2023-05-25T12:30:12.173Z,30.10
2023-05-25T12:33:04.910Z,30.00
2023-05-25T12:35:48.641Z,29.80
2023-05-25T12:38:18.601Z,28.90
2023-05-25T12:40:45.984Z,28.50
2023-05-25T12:43:14.480Z,28.50
2023-05-25T12:45:45.765Z,28.80
2023-05-25T12:48:12.614Z,29.30
2023-05-25T12:50:39.515Z,29.60
2023-05-25T12:53:06.354Z,29.60
2023-05-25T12:55:35.471Z,30.20
2023-05-25T12:58:07.175Z,30.80
2023-05-25T13:00:40.981Z,30.80
2023-05-25T13:03:08.375Z,30.50
2023-05-25T13:05:37.477Z,30.40
2023-05-25T13:08:05.889Z,30.90
2023-05-25T13:10:33.723Z,31.40
2023-05-25T13:13:01.058Z,31.20
2023-05-25T13:15:28.549Z,30.40
2023-05-25T13:17:58.292Z,30.30
2023-05-25T13:20:29.612Z,30.90
2023-05-25T13:22:56.715Z,31.30
2023-05-25T13:25:25.233Z,31.70
2023-05-25T13:27:52.821Z,31.30
2023-05-25T13:30:22.803Z,31.80
2023-05-25T13:32:52.108Z,31.80
2023-05-25T13:35:23.226Z,31.50
2023-05-25T13:37:50.904Z,30.70
2023-05-25T13:40:17.793Z,30.10
2023-05-25T13:42:44.683Z,29.50
2023-05-25T13:45:11.533Z,30.10
2023-05-25T13:47:38.670Z,30.60
2023-05-25T13:50:07.031Z,31.00
2023-05-25T13:52:33.831Z,31.00
2023-05-25T13:55:00.738Z,31.30
2023-05-25T13:57:27.558Z,30.50
2023-05-25T13:59:54.310Z,29.70
2023-05-25T14:02:22.171Z,29.70
2023-05-25T14:04:49.007Z,29.30
2023-05-25T14:07:15.781Z,28.70
2023-05-25T14:09:42.816Z,28.50
2023-05-25T14:12:09.986Z,28.30
2023-05-25T14:14:37.312Z,28.10
2023-05-25T14:17:04.314Z,28.10
2023-05-25T14:19:33.406Z,28.20
2023-05-25T14:22:12.498Z,27.60
2023-05-25T14:24:40.858Z,27.30
2023-05-25T14:27:07.655Z,27.00
2023-05-25T14:29:34.865Z,26.60
2023-05-25T14:32:02.031Z,26.40
2023-05-25T14:34:30.261Z,26.40
2023-05-25T14:36:57.091Z,26.20
2023-05-25T14:39:23.956Z,25.80
2023-05-25T14:41:50.744Z,25.60
2023-05-25T14:44:17.609Z,25.70
2023-05-25T14:46:44.428Z,25.60
2023-05-25T14:49:11.336Z,25.80
2023-05-25T14:51:38.335Z,25.80
2023-05-25T14:54:07.176Z,25.70
2023-05-25T14:56:34.108Z,25.70
2023-05-25T14:59:00.936Z,25.60
2023-05-25T15:01:29.159Z,25.40
2023-05-25T15:03:56.239Z,25.30
2023-05-25T15:06:23.093Z,25.10
2023-05-25T15:08:50.008Z,25.10
2023-05-25T15:11:17.890Z,25.20
2023-05-25T15:13:44.698Z,25.30
2023-05-25T15:16:12.777Z,25.20
2023-05-25T15:18:39.613Z,24.80
2023-05-25T15:21:06.500Z,24.70
2023-05-25T15:23:33.474Z,24.50
2023-05-25T15:26:04.679Z,24.40
2023-05-25T15:28:31.892Z,24.30
2023-05-25T15:31:02.294Z,24.40
2023-05-25T15:33:44.465Z,24.40
2023-05-25T15:36:16.841Z,24.60
2023-05-25T15:38:44.358Z,24.50
2023-05-25T15:41:16.335Z,24.20
2023-05-25T15:43:52.486Z,24.10
2023-05-25T15:46:19.405Z,23.90
2023-05-25T15:48:46.226Z,23.90
2023-05-25T15:51:13.140Z,23.90
2023-05-25T15:53:46.934Z,23.90
2023-05-25T15:56:13.725Z,24.00
2023-05-25T15:58:40.795Z,23.90
2023-05-25T16:01:07.700Z,23.90
2023-05-25T16:03:34.615Z,23.80
2023-05-25T16:06:02.458Z,23.80
2023-05-25T16:08:29.327Z,23.90
2023-05-25T16:10:56.392Z,23.90
2023-05-25T16:13:23.189Z,24.00
2023-05-25T16:15:49.984Z,23.80
2023-05-25T16:18:16.820Z,23.80
2023-05-25T16:20:44.075Z,23.70
2023-05-25T16:23:10.983Z,23.70
2023-05-25T16:25:38.115Z,23.70
2023-05-25T16:28:04.983Z,23.80
2023-05-25T16:30:31.769Z,23.90
2023-05-25T16:32:58.705Z,23.70
2023-05-25T16:35:27.135Z,23.70
2023-05-25T16:37:53.892Z,23.70
2023-05-25T16:40:20.703Z,23.70
2023-05-25T16:42:47.484Z,23.80
2023-05-25T16:45:14.223Z,24.00
2023-05-25T16:47:41.259Z,23.80
2023-05-25T16:50:09.882Z,24.00
2023-05-25T16:52:36.628Z,24.20
2023-05-25T16:55:03.630Z,24.60
2023-05-25T16:57:30.472Z,24.90
2023-05-25T16:59:57.197Z,25.10
2023-05-25T17:02:24.130Z,24.90
2023-05-25T17:04:51.014Z,24.40
2023-05-25T17:07:18.255Z,24.10
2023-05-25T17:09:46.103Z,24.00
2023-05-25T17:12:13.054Z,23.70
2023-05-25T17:14:39.806Z,23.60
2023-05-25T17:17:06.550Z,23.60
2023-05-25T17:19:34.537Z,23.50
2023-05-25T17:22:03.602Z,23.30
2023-05-25T17:24:30.485Z,23.10
2023-05-25T17:26:57.338Z,22.90
2023-05-25T17:29:24.166Z,22.60
2023-05-25T17:31:51.015Z,22.50
2023-05-25T17:34:17.858Z,22.30
2023-05-25T17:36:44.618Z,22.10
2023-05-25T17:39:11.478Z,21.90
2023-05-25T17:41:38.255Z,21.90
2023-05-25T17:44:05.046Z,21.60
2023-05-25T17:46:31.873Z,21.50
2023-05-25T17:48:58.732Z,21.40
2023-05-25T17:51:25.632Z,21.10
2023-05-25T17:53:52.445Z,21.00
2023-05-25T17:56:19.194Z,20.70
2023-05-25T17:58:47.377Z,20.50
2023-05-25T18:01:15.395Z,20.30
2023-05-25T18:03:42.570Z,20.10
2023-05-25T18:06:09.436Z,20.00
2023-05-25T18:08:36.244Z,19.80
2023-05-25T18:11:03.314Z,19.50
2023-05-25T18:13:30.215Z,19.40
2023-05-25T18:15:57.224Z,19.20
2023-05-25T18:18:24.811Z,19.10
2023-05-25T18:20:51.705Z,19.00
2023-05-25T18:23:18.541Z,18.80
2023-05-25T18:25:45.795Z,18.70
2023-05-25T18:28:15.507Z,18.60
2023-05-25T18:30:43.853Z,18.50
2023-05-25T18:33:10.905Z,18.40
2023-05-25T18:35:38.171Z,18.30
2023-05-25T18:38:06.539Z,18.10
2023-05-25T18:40:33.418Z,18.10
2023-05-25T18:43:00.254Z,18.00
2023-05-25T18:45:27.029Z,17.90
2023-05-25T18:47:54.177Z,17.90
2023-05-25T18:50:21.276Z,17.80
2023-05-25T18:52:50.942Z,17.70
2023-05-25T18:55:21.281Z,17.60
2023-05-25T18:57:49.589Z,17.50
2023-05-25T19:00:17.038Z,17.50
2023-05-25T19:02:43.911Z,17.40
2023-05-25T19:05:11.777Z,17.30
2023-05-25T19:07:54.735Z,17.20
2023-05-25T19:10:25.292Z,17.10
2023-05-25T19:12:52.124Z,17.00
2023-05-25T19:15:18.935Z,16.90
2023-05-25T19:17:46.569Z,16.80
2023-05-25T19:20:13.499Z,16.70
2023-05-25T19:22:42.096Z,16.70
2023-05-25T19:25:09.211Z,16.60
2023-05-25T19:27:36.381Z,16.50
2023-05-25T19:30:03.839Z,16.40
2023-05-25T19:32:30.747Z,16.30
2023-05-25T19:34:57.569Z,16.20
2023-05-25T19:37:24.393Z,16.10
2023-05-25T19:39:51.171Z,15.90
2023-05-25T19:42:18.017Z,15.90
2023-05-25T19:44:46.034Z,15.90
2023-05-25T19:47:12.849Z,15.80
2023-05-25T19:49:39.750Z,15.80
2023-05-25T19:52:06.754Z,15.70
2023-05-25T19:54:33.627Z,15.70
2023-05-25T19:57:00.799Z,15.70
2023-05-25T19:59:29.954Z,15.60
2023-05-25T20:01:56.976Z,15.50
2023-05-25T20:04:24.136Z,15.40
2023-05-25T20:06:51.618Z,15.30
2023-05-25T20:09:19.028Z,15.20
2023-05-25T20:11:45.869Z,15.00
2023-05-25T20:14:12.738Z,14.90
2023-05-25T20:16:39.630Z,14.80
2023-05-25T20:19:10.926Z,14.80
2023-05-25T20:21:37.726Z,14.70
2023-05-25T20:24:04.597Z,14.70
2023-05-25T20:26:31.465Z,14.60
2023-05-25T20:28:58.244Z,14.40
2023-05-25T20:31:25.265Z,14.40
2023-05-25T20:33:52.106Z,14.40
2023-05-25T20:36:18.870Z,14.40
2023-05-25T20:38:45.756Z,14.40
2023-05-25T20:41:13.386Z,14.40
2023-05-25T20:43:40.940Z,14.30
2023-05-25T20:46:09.173Z,14.30
2023-05-25T20:48:40.367Z,14.30
2023-05-25T20:51:07.208Z,14.30
2023-05-25T20:53:33.960Z,14.20
2023-05-25T20:56:02.019Z,14.20
2023-05-25T20:58:28.992Z,14.30
2023-05-25T21:00:55.883Z,14.30
2023-05-25T21:03:22.795Z,14.40
2023-05-25T21:05:49.648Z,14.30
2023-05-25T21:08:16.446Z,14.30
2023-05-25T21:10:43.220Z,14.30
2023-05-25T21:13:09.963Z,14.30
2023-05-25T21:15:36.729Z,14.30
2023-05-25T21:18:05.393Z,14.40
2023-05-25T21:20:32.958Z,14.30
2023-05-25T21:23:00.590Z,14.30
2023-05-25T21:25:27.387Z,14.30
2023-05-25T21:27:56.703Z,14.30
2023-05-25T21:30:24.256Z,14.30
2023-05-25T21:32:51.547Z,14.20
2023-05-25T21:35:18.532Z,14.20
2023-05-25T21:37:45.822Z,14.20
2023-05-25T21:40:13.159Z,14.20
2023-05-25T21:42:39.895Z,14.20
2023-05-25T21:45:07.340Z,14.10
2023-05-25T21:47:34.188Z,14.10
2023-05-25T21:50:00.962Z,14.00
2023-05-25T21:52:27.706Z,14.00
2023-05-25T21:54:54.502Z,13.90
2023-05-25T21:57:21.335Z,14.00
2023-05-25T21:59:48.128Z,14.00
2023-05-25T22:02:14.924Z,14.00
2023-05-25T22:04:41.676Z,13.90
2023-05-25T22:07:08.461Z,13.90
2023-05-25T22:09:35.273Z,13.80
2023-05-25T22:12:02.259Z,13.80
2023-05-25T22:14:29.038Z,13.70
2023-05-25T22:16:55.906Z,13.70
2023-05-25T22:19:22.731Z,13.60
2023-05-25T22:21:49.515Z,13.60
2023-05-25T22:24:16.345Z,13.60
2023-05-25T22:26:43.183Z,13.50
2023-05-25T22:29:11.756Z,13.50
2023-05-25T22:31:38.613Z,13.50
2023-05-25T22:34:05.530Z,13.50
2023-05-25T22:36:32.306Z,13.40
2023-05-25T22:38:59.128Z,13.30
2023-05-25T22:41:26.410Z,13.30
2023-05-25T22:43:53.444Z,13.20
2023-05-25T22:46:20.801Z,13.20
2023-05-25T22:48:47.621Z,13.10
2023-05-25T22:51:14.444Z,13.10
2023-05-25T22:53:42.031Z,13.00
2023-05-25T22:56:08.873Z,13.00
2023-05-25T22:58:35.688Z,13.00
2023-05-25T23:01:02.476Z,13.00
2023-05-25T23:03:29.943Z,13.00
2023-05-25T23:05:56.958Z,12.90
2023-05-25T23:08:23.856Z,12.90
2023-05-25T23:10:50.613Z,12.80
2023-05-25T23:13:19.010Z,12.90
2023-05-25T23:15:47.378Z,12.70
2023-05-25T23:18:14.351Z,12.70
2023-05-25T23:20:41.568Z,12.70
2023-05-25T23:23:08.405Z,12.60
2023-05-25T23:25:35.195Z,12.60
2023-05-25T23:28:01.943Z,12.60
2023-05-25T23:30:28.730Z,12.60
2023-05-25T23:32:55.639Z,12.60
2023-05-25T23:35:23.383Z,12.50
2023-05-25T23:37:51.786Z,12.60
2023-05-25T23:40:18.655Z,12.50
2023-05-25T23:42:46.040Z,12.40
2023-05-25T23:45:13.537Z,12.40
2023-05-25T23:47:40.570Z,12.30
2023-05-25T23:50:07.769Z,12.40
2023-05-25T23:52:34.586Z,12.30
2023-05-25T23:55:01.339Z,12.20
2023-05-25T23:57:28.106Z,12.20
2023-05-25T23:59:54.941Z,12.20
